createdAt,value
2022-10-17T00:01:20.382Z,10.59
2022-10-17T00:03:49.169Z,10.57
2022-10-17T00:06:17.766Z,10.59
2022-10-17T00:08:46.835Z,10.54
2022-10-17T00:11:18.050Z,10.53
2022-10-17T00:13:47.045Z,10.53
2022-10-17T00:16:16.292Z,10.47
2022-10-17T00:18:46.331Z,10.44
2022-10-17T00:21:19.152Z,10.47
2022-10-17T00:23:48.100Z,10.42
2022-10-17T00:26:17.934Z,10.43
2022-10-17T00:28:48.828Z,10.36
2022-10-17T00:31:18.371Z,10.33
2022-10-17T00:33:49.258Z,10.28
2022-10-17T00:36:20.440Z,10.36
2022-10-17T00:38:51.910Z,10.40
2022-10-17T00:41:22.753Z,10.38
2022-10-17T00:43:56.760Z,10.43
2022-10-17T00:46:27.299Z,10.42
2022-10-17T00:48:59.179Z,10.43
2022-10-17T00:51:33.166Z,10.38
2022-10-17T00:54:04.301Z,10.38
2022-10-17T00:56:34.110Z,10.35
2022-10-17T00:59:03.659Z,10.25
2022-10-17T01:01:32.507Z,10.24
2022-10-17T01:04:02.540Z,10.25
2022-10-17T01:06:31.312Z,10.21
2022-10-17T01:09:00.164Z,10.06
2022-10-17T01:11:42.073Z,10.04
2022-10-17T01:14:19.637Z,9.99
2022-10-17T01:16:56.788Z,9.96
2022-10-17T01:19:46.065Z,9.89
2022-10-17T01:22:25.204Z,9.84
2022-10-17T01:25:17.378Z,9.78
2022-10-17T01:28:14.949Z,9.72
2022-10-17T01:31:06.452Z,9.66
2022-10-17T01:33:47.636Z,9.68
2022-10-17T01:36:21.331Z,9.68
2022-10-17T01:38:53.355Z,9.62
2022-10-17T01:41:29.166Z,9.64
2022-10-17T01:44:05.551Z,9.58
2022-10-17T01:46:38.633Z,9.57
2022-10-17T01:49:10.149Z,9.59
2022-10-17T01:51:43.705Z,9.53
2022-10-17T01:54:17.930Z,9.46
2022-10-17T01:56:49.927Z,9.47
2022-10-17T01:59:23.965Z,9.42
2022-10-17T02:01:57.438Z,9.39
2022-10-17T02:04:27.467Z,9.35
2022-10-17T02:06:56.085Z,9.40
2022-10-17T02:09:26.497Z,9.38
2022-10-17T02:12:23.102Z,9.31
2022-10-17T02:15:06.601Z,9.27
2022-10-17T02:17:46.816Z,9.21
2022-10-17T02:20:21.679Z,9.13
2022-10-17T02:22:55.763Z,9.13
2022-10-17T02:25:35.765Z,9.07
2022-10-17T02:28:15.172Z,9.16
2022-10-17T02:30:48.611Z,9.09
2022-10-17T02:33:23.713Z,9.09
2022-10-17T02:35:56.213Z,9.01
2022-10-17T02:38:27.537Z,9.03
2022-10-17T02:40:57.438Z,9.16
2022-10-17T02:43:26.620Z,9.21
2022-10-17T02:45:56.087Z,9.20
2022-10-17T02:48:34.302Z,9.21
2022-10-17T02:51:11.886Z,9.18
2022-10-17T02:53:49.038Z,9.22
2022-10-17T02:56:20.533Z,9.16
2022-10-17T02:58:53.707Z,9.15
2022-10-17T03:01:23.202Z,9.17
2022-10-17T03:03:53.612Z,9.22
2022-10-17T03:06:22.331Z,9.23
2022-10-17T03:08:50.926Z,9.24
2022-10-17T03:11:19.872Z,9.19
2022-10-17T03:13:48.543Z,9.20
2022-10-17T03:16:18.697Z,9.24
2022-10-17T03:18:50.021Z,9.24
2022-10-17T03:21:20.859Z,9.19
2022-10-17T03:23:49.836Z,9.15
2022-10-17T03:26:20.413Z,9.16
2022-10-17T03:28:51.975Z,9.19
2022-10-17T03:31:23.871Z,9.18
2022-10-17T03:33:53.701Z,9.22
2022-10-17T03:36:23.825Z,9.22
2022-10-17T03:38:55.950Z,9.23
2022-10-17T03:41:25.079Z,9.22
2022-10-17T03:43:54.884Z,9.24
2022-10-17T03:46:24.896Z,9.22
2022-10-17T03:48:53.910Z,9.24
2022-10-17T03:51:24.049Z,9.25
2022-10-17T03:53:57.425Z,9.23
2022-10-17T03:56:26.944Z,9.24
2022-10-17T03:59:00.978Z,9.24
2022-10-17T04:01:32.175Z,9.22
2022-10-17T04:04:01.464Z,9.20
2022-10-17T04:06:34.754Z,9.13
2022-10-17T04:09:03.919Z,9.02
2022-10-17T04:11:43.279Z,9.01
2022-10-17T04:14:12.321Z,8.97
2022-10-17T04:16:41.750Z,8.98
2022-10-17T04:19:15.919Z,8.93
2022-10-17T04:21:49.834Z,8.90
2022-10-17T04:24:19.334Z,8.92
2022-10-17T04:26:54.993Z,8.82
2022-10-17T04:29:27.062Z,8.83
2022-10-17T04:32:03.373Z,8.79
2022-10-17T04:34:37.376Z,8.73
2022-10-17T04:37:07.666Z,8.78
2022-10-17T04:39:37.251Z,8.76
2022-10-17T04:42:05.897Z,8.65
2022-10-17T04:44:35.882Z,8.65
2022-10-17T04:47:04.865Z,8.59
2022-10-17T04:49:33.510Z,8.63
2022-10-17T04:52:11.480Z,8.65
2022-10-17T04:54:48.007Z,8.68
2022-10-17T04:57:16.675Z,8.64
2022-10-17T04:59:53.481Z,8.69
2022-10-17T05:02:28.349Z,8.76
2022-10-17T05:04:57.629Z,8.77
2022-10-17T05:07:27.687Z,8.81
2022-10-17T05:10:19.493Z,8.83
2022-10-17T05:12:51.695Z,8.83
2022-10-17T05:15:23.032Z,8.87
2022-10-17T05:17:56.568Z,8.95
2022-10-17T05:20:27.290Z,8.99
2022-10-17T05:22:57.625Z,9.01
2022-10-17T05:25:29.467Z,9.02
2022-10-17T05:27:58.217Z,9.08
2022-10-17T05:30:27.199Z,9.03
2022-10-17T05:33:00.330Z,9.04
2022-10-17T05:35:29.097Z,9.05
2022-10-17T05:38:00.812Z,9.09
2022-10-17T05:40:31.677Z,9.14
2022-10-17T05:43:00.749Z,9.17
2022-10-17T05:45:29.469Z,9.20
2022-10-17T05:47:58.989Z,9.21
2022-10-17T05:50:28.078Z,9.24
2022-10-17T05:53:08.597Z,9.25
2022-10-17T05:55:43.078Z,9.25
2022-10-17T05:58:17.760Z,9.28
2022-10-17T06:01:00.380Z,9.28
2022-10-17T06:03:30.033Z,9.25
2022-10-17T06:06:04.225Z,9.25
2022-10-17T06:08:34.474Z,9.25
2022-10-17T06:11:06.122Z,9.29
2022-10-17T06:13:38.205Z,9.31
2022-10-17T06:16:12.777Z,9.32
2022-10-17T06:18:41.701Z,9.33
2022-10-17T06:21:12.491Z,9.32
2022-10-17T06:23:48.480Z,9.34
2022-10-17T06:26:33.464Z,9.35
2022-10-17T06:29:02.514Z,9.35
2022-10-17T06:31:36.581Z,9.32
2022-10-17T06:34:05.337Z,9.34
2022-10-17T06:36:33.930Z,9.33
2022-10-17T06:39:04.632Z,9.31
2022-10-17T06:41:39.859Z,9.32
2022-10-17T06:44:11.492Z,9.33
2022-10-17T06:46:42.384Z,9.33
2022-10-17T06:49:11.843Z,9.33
2022-10-17T06:51:58.297Z,9.33
2022-10-17T06:54:44.587Z,9.33
2022-10-17T06:57:32.197Z,9.34
2022-10-17T07:00:24.177Z,9.35
2022-10-17T07:02:56.058Z,9.39
2022-10-17T07:05:25.414Z,9.40
2022-10-17T07:07:54.265Z,9.41
2022-10-17T07:10:24.585Z,9.39
2022-10-17T07:12:53.266Z,9.40
2022-10-17T07:15:21.993Z,9.42
2022-10-17T07:17:51.866Z,9.41
2022-10-17T07:20:21.706Z,9.42
2022-10-17T07:22:50.422Z,9.42
2022-10-17T07:25:20.590Z,9.48
2022-10-17T07:27:55.075Z,9.49
2022-10-17T07:30:24.429Z,9.52
2022-10-17T07:33:04.915Z,9.57
2022-10-17T07:35:33.774Z,9.60
2022-10-17T07:38:02.590Z,9.63
2022-10-17T07:40:31.384Z,9.68
2022-10-17T07:43:02.369Z,9.72
2022-10-17T07:45:31.909Z,9.75
2022-10-17T07:48:00.525Z,9.72
2022-10-17T07:50:29.471Z,9.75
2022-10-17T07:52:58.145Z,9.77
2022-10-17T07:55:26.966Z,9.79
2022-10-17T07:57:55.647Z,9.80
2022-10-17T08:00:25.813Z,9.84
2022-10-17T08:02:54.689Z,9.83
2022-10-17T08:05:23.310Z,9.84
2022-10-17T08:07:51.989Z,9.86
2022-10-17T08:10:20.971Z,9.91
2022-10-17T08:12:49.765Z,9.94
2022-10-17T08:15:18.382Z,9.97
2022-10-17T08:17:48.534Z,9.96
2022-10-17T08:20:17.689Z,9.95
2022-10-17T08:22:53.940Z,10.01
2022-10-17T08:25:23.740Z,10.04
2022-10-17T08:27:52.511Z,10.07
2022-10-17T08:30:21.223Z,10.06
2022-10-17T08:32:51.463Z,10.04
2022-10-17T08:35:22.058Z,10.05
2022-10-17T08:37:50.710Z,10.10
2022-10-17T08:40:23.551Z,10.14
2022-10-17T08:43:12.945Z,10.13
2022-10-17T08:45:48.998Z,10.23
2022-10-17T08:48:22.319Z,10.25
2022-10-17T08:50:54.628Z,10.26
2022-10-17T08:53:29.249Z,10.27
2022-10-17T08:55:59.599Z,10.24
2022-10-17T08:58:32.443Z,10.20
2022-10-17T09:01:12.758Z,10.23
2022-10-17T09:03:54.137Z,10.19
2022-10-17T09:06:30.158Z,10.17
2022-10-17T09:09:14.075Z,10.16
2022-10-17T09:11:57.334Z,10.16
2022-10-17T09:14:43.396Z,10.18
2022-10-17T09:17:25.314Z,10.23
2022-10-17T09:20:01.508Z,10.28
2022-10-17T09:22:35.554Z,10.29
2022-10-17T09:25:12.729Z,10.29
2022-10-17T09:27:44.659Z,10.30
2022-10-17T09:30:46.285Z,10.30
2022-10-17T09:33:28.519Z,10.32
2022-10-17T09:36:10.478Z,10.36
2022-10-17T09:38:43.670Z,10.35
2022-10-17T09:44:23.197Z,10.41
2022-10-17T09:47:07.566Z,10.41
2022-10-17T09:49:38.176Z,10.42
2022-10-17T09:52:15.270Z,10.51
2022-10-17T09:54:48.024Z,10.60
2022-10-17T09:57:18.496Z,10.60
2022-10-17T09:59:49.497Z,10.54
2022-10-17T10:02:19.253Z,10.60
2022-10-17T10:05:05.421Z,10.53
2022-10-17T10:07:37.663Z,10.58
2022-10-17T10:10:09.678Z,10.58
2022-10-17T10:12:40.556Z,10.59
2022-10-17T10:15:34.868Z,10.61
2022-10-17T10:18:04.096Z,10.71
2022-10-17T10:20:35.960Z,10.69
2022-10-17T10:23:14.613Z,10.79
2022-10-17T10:25:58.348Z,10.77
2022-10-17T10:28:29.923Z,10.75
2022-10-17T10:31:01.182Z,10.95
2022-10-17T10:33:32.570Z,10.90
2022-10-17T10:36:03.617Z,10.88
2022-10-17T10:38:34.456Z,10.77
2022-10-17T10:41:08.813Z,10.73
2022-10-17T10:43:40.196Z,10.66
2022-10-17T10:46:19.959Z,10.83
2022-10-17T10:48:53.758Z,11.04
2022-10-17T10:51:29.533Z,11.05
2022-10-17T10:54:07.042Z,11.04
2022-10-17T10:56:39.492Z,11.15
2022-10-17T10:59:19.264Z,11.07
2022-10-17T11:01:55.472Z,10.95
2022-10-17T11:04:37.886Z,11.03
2022-10-17T11:07:11.661Z,10.84
2022-10-17T11:09:52.787Z,10.65
2022-10-17T11:12:23.130Z,10.83
2022-10-17T11:14:58.002Z,10.96
2022-10-17T11:17:35.690Z,11.04
2022-10-17T11:20:23.015Z,11.03
2022-10-17T11:22:57.742Z,11.01
2022-10-17T11:25:38.846Z,10.97
2022-10-17T11:28:13.669Z,11.03
2022-10-17T11:30:50.596Z,11.12
2022-10-17T11:33:32.086Z,11.18
2022-10-17T11:36:05.876Z,11.26
2022-10-17T11:38:47.039Z,11.24
2022-10-17T11:41:27.565Z,11.20
2022-10-17T11:44:01.125Z,11.15
2022-10-17T11:46:30.912Z,11.24
2022-10-17T11:49:07.247Z,11.26
2022-10-17T11:52:00.767Z,11.18
2022-10-17T11:54:36.920Z,11.11
2022-10-17T11:57:41.360Z,11.17
2022-10-17T12:00:28.390Z,11.08
2022-10-17T12:03:07.041Z,11.03
2022-10-17T12:05:46.514Z,10.95
2022-10-17T12:08:27.949Z,10.93
2022-10-17T12:11:05.548Z,10.87
2022-10-17T12:13:57.075Z,10.85
2022-10-17T12:16:48.679Z,10.85
2022-10-17T12:19:32.663Z,10.84
2022-10-17T12:22:06.365Z,10.90
2022-10-17T12:24:39.346Z,10.91
2022-10-17T12:27:46.197Z,10.93
2022-10-17T12:30:30.418Z,10.94
2022-10-17T12:33:07.517Z,10.92
2022-10-17T12:35:38.867Z,10.93
2022-10-17T12:38:22.077Z,10.94
2022-10-17T12:40:58.703Z,10.94
2022-10-17T12:43:48.652Z,10.95
2022-10-17T12:46:49.860Z,10.95
2022-10-17T12:49:40.432Z,10.92
2022-10-17T12:52:22.678Z,10.89
2022-10-17T12:55:10.873Z,10.91
2022-10-17T12:57:55.685Z,10.89
2022-10-17T13:00:30.799Z,10.86
2022-10-17T13:03:12.387Z,10.79
2022-10-17T13:05:45.366Z,10.75
2022-10-17T13:08:19.541Z,10.72
2022-10-17T13:10:52.501Z,10.70
2022-10-17T13:13:24.969Z,10.72
2022-10-17T13:15:55.765Z,10.71
2022-10-17T13:18:26.482Z,10.76
2022-10-17T13:21:02.343Z,10.74
2022-10-17T13:23:34.222Z,10.80
2022-10-17T13:26:16.416Z,10.76
2022-10-17T13:28:45.541Z,10.73
2022-10-17T13:31:32.216Z,10.73
2022-10-17T13:34:02.878Z,10.76
2022-10-17T13:36:34.479Z,10.86
2022-10-17T13:39:12.508Z,10.90
2022-10-17T13:41:43.383Z,10.86
2022-10-17T13:44:16.076Z,10.89
2022-10-17T13:46:45.833Z,10.83
2022-10-17T13:49:25.849Z,10.81
2022-10-17T13:51:59.569Z,10.76
2022-10-17T13:54:36.596Z,10.74
2022-10-17T13:57:07.081Z,10.69
2022-10-17T13:59:40.264Z,10.61
2022-10-17T14:02:16.896Z,10.59
2022-10-17T14:05:15.215Z,10.60
2022-10-17T14:08:09.399Z,10.58
2022-10-17T14:10:33.858Z,10.55
2022-10-17T14:13:04.497Z,10.54
2022-10-17T14:15:36.623Z,10.52
2022-10-17T14:18:09.575Z,10.43
2022-10-17T14:23:38.434Z,10.37
2022-10-17T14:26:14.157Z,10.25
2022-10-17T14:28:45.332Z,10.23
2022-10-17T14:31:26.846Z,10.11
2022-10-17T14:33:56.256Z,10.01
2022-10-17T14:36:42.294Z,10.01
2022-10-17T14:39:21.518Z,9.98
2022-10-17T14:41:51.849Z,9.95
2022-10-17T14:44:24.384Z,9.84
2022-10-17T14:46:58.038Z,9.76
2022-10-17T14:49:35.141Z,9.68
2022-10-17T14:52:28.765Z,9.60
2022-10-17T14:55:00.910Z,9.54
2022-10-17T14:57:45.574Z,9.49
2022-10-17T15:00:18.363Z,9.45
2022-10-17T15:02:48.143Z,9.34
2022-10-17T15:05:17.801Z,9.32
2022-10-17T15:07:46.408Z,9.36
2022-10-17T15:10:27.403Z,9.32
2022-10-17T15:12:59.309Z,9.30
2022-10-17T15:15:34.263Z,9.31
2022-10-17T15:18:02.934Z,9.29
2022-10-17T15:20:32.490Z,9.32
2022-10-17T15:23:02.909Z,9.24
2022-10-17T15:25:34.652Z,9.19
2022-10-17T15:28:03.351Z,9.13
2022-10-17T15:30:34.016Z,9.16
2022-10-17T15:33:04.419Z,9.19
2022-10-17T15:35:33.218Z,9.23
2022-10-17T15:38:01.833Z,9.22
2022-10-17T15:40:32.959Z,9.20
2022-10-17T15:43:01.645Z,9.18
2022-10-17T15:45:30.342Z,9.16
2022-10-17T15:48:05.809Z,9.14
2022-10-17T15:50:34.681Z,9.11
2022-10-17T15:53:03.350Z,9.10
2022-10-17T15:55:34.359Z,9.06
2022-10-17T15:58:02.780Z,9.04
2022-10-17T16:00:31.449Z,8.98
2022-10-17T16:03:00.880Z,8.91
2022-10-17T16:05:29.940Z,8.83
2022-10-17T16:07:58.973Z,8.80
2022-10-17T16:10:27.659Z,8.75
2022-10-17T16:12:57.772Z,8.66
2022-10-17T16:15:28.277Z,8.61
2022-10-17T16:18:01.576Z,8.58
2022-10-17T16:20:33.066Z,8.56
2022-10-17T16:23:03.398Z,8.57
2022-10-17T16:25:33.023Z,8.57
2022-10-17T16:28:05.427Z,8.59
2022-10-17T16:30:46.518Z,8.60
2022-10-17T16:33:14.858Z,8.60
2022-10-17T16:35:43.505Z,8.61
2022-10-17T16:38:12.406Z,8.62
2022-10-17T16:40:41.329Z,8.60
2022-10-17T16:43:13.387Z,8.61
2022-10-17T16:45:42.645Z,8.65
2022-10-17T16:48:12.405Z,8.64
2022-10-17T16:50:42.004Z,8.67
2022-10-17T16:53:10.563Z,8.66
2022-10-17T16:55:39.568Z,8.64
2022-10-17T16:58:08.166Z,8.62
2022-10-17T17:00:40.511Z,8.59
2022-10-17T17:03:09.283Z,8.57
2022-10-17T17:05:37.803Z,8.60
2022-10-17T17:08:10.343Z,8.52
2022-10-17T17:10:46.119Z,8.54
2022-10-17T17:13:14.745Z,8.47
2022-10-17T17:18:19.481Z,8.34
2022-10-17T17:20:48.340Z,8.37
2022-10-17T17:23:17.240Z,8.35
2022-10-17T17:25:46.042Z,8.36
2022-10-17T17:28:14.720Z,8.34
2022-10-17T17:30:44.965Z,8.36
2022-10-17T17:33:13.732Z,8.38
2022-10-17T17:35:42.347Z,8.37
2022-10-17T17:38:11.120Z,8.37
2022-10-17T17:40:50.447Z,8.37
2022-10-17T17:43:20.420Z,8.37
2022-10-17T17:45:50.501Z,8.38
2022-10-17T17:48:19.275Z,8.38
2022-10-17T17:50:48.114Z,8.38
2022-10-17T17:53:17.975Z,8.39
2022-10-17T17:55:46.799Z,8.43
2022-10-17T17:58:15.619Z,8.41
2022-10-17T18:00:44.257Z,8.40
2022-10-17T18:03:14.839Z,8.46
2022-10-17T18:05:43.442Z,8.47
2022-10-17T18:08:12.178Z,8.50
2022-10-17T18:10:40.733Z,8.50
2022-10-17T18:13:09.354Z,8.51
2022-10-17T18:15:38.798Z,8.48
2022-10-17T18:18:07.714Z,8.45
2022-10-17T18:20:41.729Z,8.46
2022-10-17T18:23:10.805Z,8.46
2022-10-17T18:25:39.964Z,8.45
2022-10-17T18:28:09.296Z,8.44
2022-10-17T18:30:38.882Z,8.44
2022-10-17T18:33:07.561Z,8.45
2022-10-17T18:35:37.641Z,8.44
2022-10-17T18:38:06.467Z,8.46
2022-10-17T18:40:35.380Z,8.45
2022-10-17T18:43:04.103Z,8.44
2022-10-17T18:45:32.822Z,8.44
2022-10-17T18:48:01.641Z,8.44
2022-10-17T18:50:30.260Z,8.42
2022-10-17T18:53:00.578Z,8.44
2022-10-17T18:55:29.333Z,8.42
2022-10-17T18:57:57.999Z,8.40
2022-10-17T19:00:26.614Z,8.38
2022-10-17T19:02:55.232Z,8.36
2022-10-17T19:05:24.013Z,8.36
2022-10-17T19:07:52.536Z,8.37
2022-10-17T19:10:22.731Z,8.38
2022-10-17T19:12:51.982Z,8.36
2022-10-17T19:15:23.756Z,8.37
2022-10-17T19:17:54.821Z,8.36
2022-10-17T19:20:23.481Z,8.35
2022-10-17T19:25:27.492Z,8.35
2022-10-17T19:27:56.154Z,8.33
2022-10-17T19:30:24.699Z,8.31
2022-10-17T19:32:53.320Z,8.31
2022-10-17T19:35:21.829Z,8.30
2022-10-17T19:37:50.859Z,8.32
2022-10-17T19:40:19.627Z,8.31
2022-10-17T19:42:49.621Z,8.33
2022-10-17T19:45:18.353Z,8.34
2022-10-17T19:47:47.008Z,8.34
2022-10-17T19:50:15.653Z,8.33
2022-10-17T19:52:44.340Z,8.36
2022-10-17T19:55:12.905Z,8.37
2022-10-17T19:57:41.640Z,8.38
2022-10-17T20:00:12.928Z,8.40
2022-10-17T20:02:41.500Z,8.40
2022-10-17T20:05:18.448Z,8.40
2022-10-17T20:07:47.610Z,8.42
2022-10-17T20:10:16.211Z,8.42
2022-10-17T20:12:44.889Z,8.44
2022-10-17T20:15:14.928Z,8.44
2022-10-17T20:17:43.561Z,8.44
2022-10-17T20:20:12.275Z,8.43
2022-10-17T20:22:41.014Z,8.43
2022-10-17T20:25:10.000Z,8.44
2022-10-17T20:27:38.762Z,8.45
2022-10-17T20:30:08.485Z,8.45
2022-10-17T20:32:40.146Z,8.45
2022-10-17T20:35:10.079Z,8.42
2022-10-17T20:37:42.602Z,8.41
2022-10-17T20:43:01.454Z,8.45
2022-10-17T20:45:43.816Z,8.44
2022-10-17T20:48:20.911Z,8.43
2022-10-17T20:50:50.350Z,8.43
2022-10-17T20:56:11.764Z,8.45
2022-10-17T20:58:40.493Z,8.45
2022-10-17T21:01:09.803Z,8.46
2022-10-17T21:03:45.478Z,8.43
2022-10-17T21:06:15.565Z,8.45
2022-10-17T21:08:44.847Z,8.49
2022-10-17T21:11:16.023Z,8.48
2022-10-17T21:13:59.665Z,8.52
2022-10-17T21:16:29.587Z,8.49
2022-10-17T21:19:00.274Z,8.48
2022-10-17T21:21:31.922Z,8.48
2022-10-17T21:24:02.317Z,8.47
2022-10-17T21:26:33.875Z,8.45
2022-10-17T21:29:05.960Z,8.47
2022-10-17T21:31:36.677Z,8.51
2022-10-17T21:34:10.623Z,8.50
2022-10-17T21:36:39.188Z,8.50
2022-10-17T21:41:41.788Z,8.54
2022-10-17T21:44:14.568Z,8.51
2022-10-17T21:46:43.438Z,8.51
2022-10-17T21:49:15.503Z,8.47
2022-10-17T21:51:45.002Z,8.48
2022-10-17T21:54:13.834Z,8.48
2022-10-17T21:56:42.630Z,8.49
2022-10-17T21:59:11.487Z,8.50
2022-10-17T22:01:41.879Z,8.49
2022-10-17T22:04:14.314Z,8.46
2022-10-17T22:06:44.726Z,8.48
2022-10-17T22:09:15.757Z,8.46
2022-10-17T22:11:46.318Z,8.43
2022-10-17T22:14:17.660Z,8.44
2022-10-17T22:16:47.454Z,8.42
2022-10-17T22:19:20.925Z,8.42
2022-10-17T22:21:49.775Z,8.44
2022-10-17T22:26:53.525Z,8.40
2022-10-17T22:29:22.626Z,8.38
2022-10-17T22:31:51.335Z,8.37
2022-10-17T22:34:21.420Z,8.39
2022-10-17T22:36:50.233Z,8.38
2022-10-17T22:39:18.984Z,8.45
2022-10-17T22:41:47.869Z,8.54
2022-10-17T22:44:16.456Z,8.76
2022-10-17T22:46:45.179Z,8.82
2022-10-17T22:49:13.793Z,8.86
2022-10-17T22:51:44.051Z,8.86
2022-10-17T22:54:12.611Z,8.86
2022-10-17T22:56:41.227Z,8.93
2022-10-17T22:59:09.879Z,8.83
2022-10-17T23:01:38.581Z,8.75
2022-10-17T23:04:07.344Z,8.66
2022-10-17T23:06:35.965Z,8.63
2022-10-17T23:09:05.990Z,8.68
2022-10-17T23:11:34.744Z,8.74
2022-10-17T23:14:03.347Z,8.64
2022-10-17T23:16:32.056Z,8.55
2022-10-17T23:19:01.028Z,8.51
2022-10-17T23:21:29.761Z,8.43
2022-10-17T23:23:58.333Z,8.43
2022-10-17T23:26:28.463Z,8.52
2022-10-17T23:28:57.026Z,8.26
2022-10-17T23:31:25.657Z,8.25
2022-10-17T23:33:54.263Z,8.28
2022-10-17T23:36:23.097Z,8.35
2022-10-17T23:38:53.886Z,8.26
2022-10-17T23:41:25.192Z,8.39
2022-10-17T23:43:57.231Z,8.25
2022-10-17T23:46:26.002Z,8.21
2022-10-17T23:49:49.300Z,8.24
2022-10-17T23:52:36.906Z,8.34
2022-10-17T23:55:06.442Z,8.32
2022-10-17T23:57:35.099Z,8.23
